Time;durP1;ratioP1;P1;durP2;ratioP2;P2;SDS_P1;SDS_P2;PMS_P1;PMS_P2;Temp;Humidity;BMP_temperature;BMP_pressure;BME280_temperature;BME280_humidity;BME280_pressure;Samples;Min_cycle;Max_cycle;Signal;HPM_P1;HPM_P2
2023/10/07 00:02:15;;;;;;;13.27;6.07;;;11.60;79.70;;;;;;5024902;28;20425;-71
2023/10/07 00:04:41;;;;;;;13.07;5.53;;;11.50;79.50;;;;;;5020123;28;20978;-71
2023/10/07 00:07:11;;;;;;;11.70;6.10;;;11.50;79.20;;;;;;5021017;28;20503;-71
2023/10/07 00:09:41;;;;;;;12.80;5.77;;;11.50;79.30;;;;;;5029604;28;20455;-71
2023/10/07 00:12:14;;;;;;;12.17;6.20;;;11.40;79.50;;;;;;5028996;28;20446;-72
2023/10/07 00:14:41;;;;;;;10.00;5.70;;;11.40;79.20;;;;;;5029426;28;20477;-72
2023/10/07 00:17:16;;;;;;;14.00;5.60;;;11.40;79.00;;;;;;5024516;28;20471;-71
2023/10/07 00:19:42;;;;;;;12.07;5.97;;;11.30;79.00;;;;;;5027295;28;20455;-71
2023/10/07 00:22:09;;;;;;;10.30;5.80;;;11.40;78.60;;;;;;5020120;28;20891;-71
2023/10/07 00:24:40;;;;;;;13.83;6.17;;;11.40;78.40;;;;;;5025298;28;20416;-73
2023/10/07 00:27:17;;;;;;;10.13;4.93;;;11.50;77.70;;;;;;5022683;28;20505;-71
2023/10/07 00:29:54;;;;;;;9.80;5.23;;;11.50;77.40;;;;;;5022991;28;20467;-72
2023/10/07 00:32:32;;;;;;;9.93;5.13;;;11.40;77.40;;;;;;5024095;28;20425;-72
2023/10/07 00:35:01;;;;;;;11.27;5.33;;;11.40;77.30;;;;;;5017028;28;20944;-72
2023/10/07 00:37:29;;;;;;;10.10;4.80;;;11.40;77.10;;;;;;5025325;28;20920;-72
2023/10/07 00:39:55;;;;;;;7.37;4.60;;;11.40;77.30;;;;;;5023773;28;20499;-72
2023/10/07 00:42:26;;;;;;;11.43;5.50;;;11.30;77.10;;;;;;5024539;28;20509;-72
2023/10/07 00:44:53;;;;;;;13.03;5.83;;;11.20;77.30;;;;;;5025004;28;20432;-72
2023/10/07 00:47:19;;;;;;;9.73;5.00;;;11.10;77.30;;;;;;5024756;28;20444;-72
2023/10/07 00:52:32;;;;;;;10.33;5.00;;;11.10;77.40;;;;;;5029878;28;20514;-70
2023/10/07 00:57:34;;;;;;;10.47;5.33;;;11.20;77.10;;;;;;5027093;28;20485;-72
2023/10/07 01:00:12;;;;;;;13.73;5.50;;;11.30;76.70;;;;;;5030045;28;20424;-72
2023/10/07 01:02:38;;;;;;;13.00;5.47;;;11.10;76.70;;;;;;5027163;28;20435;-73
2023/10/07 01:05:13;;;;;;;11.20;4.83;;;11.20;76.70;;;;;;5026307;28;20427;-72
2023/10/07 01:07:41;;;;;;;11.33;5.60;;;11.20;76.40;;;;;;5030624;28;20915;-72
2023/10/07 01:12:44;;;;;;;11.53;5.53;;;11.20;76.70;;;;;;5026375;28;20434;-71
2023/10/07 01:15:22;;;;;;;11.77;4.80;;;11.20;76.40;;;;;;5026235;28;21132;-71
2023/10/07 01:18:04;;;;;;;11.23;4.97;;;11.10;76.40;;;;;;5023709;28;20424;-71
2023/10/07 01:23:22;;;;;;;12.53;4.87;;;11.00;77.00;;;;;;5028480;28;20439;-73
2023/10/07 01:25:50;;;;;;;11.60;5.27;;;11.10;76.80;;;;;;5026818;28;20905;-72
2023/10/07 01:28:16;;;;;;;11.17;5.03;;;11.20;76.10;;;;;;5030372;28;20930;-71
2023/10/07 01:33:35;;;;;;;12.53;5.67;;;11.30;75.90;;;;;;5028539;28;20450;-71
2023/10/07 01:36:10;;;;;;;13.03;5.70;;;11.20;75.90;;;;;;5025160;28;20463;-71
2023/10/07 01:38:41;;;;;;;14.13;5.20;;;11.20;76.10;;;;;;5030498;28;20862;-71
2023/10/07 01:41:14;;;;;;;11.80;5.33;;;11.10;76.20;;;;;;5021974;28;20558;-71
2023/10/07 01:43:40;;;;;;;14.40;5.37;;;11.10;76.40;;;;;;5030149;28;20440;-71
2023/10/07 01:46:10;;;;;;;14.10;5.27;;;11.20;76.20;;;;;;5027014;28;20460;-71
2023/10/07 01:48:37;;;;;;;9.13;4.40;;;11.10;75.80;;;;;;5026399;28;20486;-71
2023/10/07 01:51:05;;;;;;;13.87;5.43;;;11.10;76.20;;;;;;5031994;28;21205;-70
2023/10/07 01:53:32;;;;;;;13.97;6.00;;;11.10;76.10;;;;;;5026971;28;20913;-71
2023/10/07 01:55:58;;;;;;;12.67;4.63;;;11.10;76.40;;;;;;5026238;28;20525;-71
2023/10/07 01:58:25;;;;;;;7.77;4.60;;;11.20;76.20;;;;;;5029147;28;20869;-70
2023/10/07 02:00:57;;;;;;;8.73;4.83;;;11.20;76.10;;;;;;5028754;28;20514;-71
2023/10/07 02:03:23;;;;;;;10.03;4.80;;;11.20;75.80;;;;;;5030237;28;20602;-71
2023/10/07 02:05:50;;;;;;;11.03;5.50;;;11.20;75.40;;;;;;5027609;28;20540;-70
2023/10/07 02:08:20;;;;;;;9.73;5.50;;;11.20;75.70;;;;;;5022694;28;20854;-70
2023/10/07 02:10:57;;;;;;;10.60;4.97;;;11.10;75.80;;;;;;5024880;28;20475;-69
2023/10/07 02:13:23;;;;;;;13.60;5.97;;;11.10;76.20;;;;;;5023140;28;20424;-70
2023/10/07 02:15:51;;;;;;;11.17;5.40;;;11.10;75.90;;;;;;5024390;28;20452;-69
2023/10/07 02:18:18;;;;;;;10.20;5.07;;;11.00;76.20;;;;;;5020796;28;20424;-69
2023/10/07 02:20:52;;;;;;;13.33;5.60;;;11.10;76.40;;;;;;5025024;28;20606;-70
2023/10/07 02:23:37;;;;;;;11.53;4.97;;;11.10;76.20;;;;;;5026530;28;20944;-71
2023/10/07 02:26:07;;;;;;;11.00;5.33;;;11.10;76.40;;;;;;5013256;28;20500;-69
2023/10/07 02:28:35;;;;;;;14.60;6.37;;;11.00;76.50;;;;;;5029530;28;20440;-70
2023/10/07 02:31:15;;;;;;;20.43;9.40;;;11.00;76.80;;;;;;5036011;28;20549;-70
2023/10/07 02:33:46;;;;;;;30.23;12.47;;;11.10;76.20;;;;;;5028879;28;20463;-70
2023/10/07 02:36:28;;;;;;;16.10;6.93;;;11.10;75.80;;;;;;5028316;28;20479;-69
2023/10/07 02:39:01;;;;;;;12.60;6.07;;;11.00;76.70;;;;;;5029238;28;20416;-70
2023/10/07 02:41:27;;;;;;;10.90;5.80;;;11.00;76.50;;;;;;5026147;28;20475;-70
2023/10/07 02:43:52;;;;;;;13.77;6.17;;;10.90;76.50;;;;;;5031867;28;20412;-70
2023/10/07 02:46:31;;;;;;;12.77;6.00;;;10.90;77.00;;;;;;5027262;28;20251;-71
2023/10/07 02:49:01;;;;;;;13.03;5.20;;;10.90;76.70;;;;;;5029403;28;20184;-70
2023/10/07 02:51:27;;;;;;;13.80;6.27;;;10.90;77.30;;;;;;5030225;28;20428;-70
2023/10/07 02:54:00;;;;;;;13.17;6.37;;;10.70;77.30;;;;;;5028069;28;20428;-71
2023/10/07 02:56:29;;;;;;;8.30;4.90;;;10.70;77.70;;;;;;5020970;28;20210;-70
2023/10/07 02:59:00;;;;;;;11.00;5.60;;;10.80;77.40;;;;;;5025731;28;20951;-71
2023/10/07 03:01:28;;;;;;;12.97;6.00;;;10.80;77.00;;;;;;5022002;28;20433;-70
2023/10/07 03:03:55;;;;;;;9.33;4.70;;;10.80;77.10;;;;;;5024904;28;20833;-70
2023/10/07 03:06:25;;;;;;;8.20;4.47;;;10.80;77.40;;;;;;5020762;28;20479;-70
2023/10/07 03:09:00;;;;;;;13.77;5.77;;;10.80;77.60;;;;;;5023743;28;20487;-70
2023/10/07 03:11:40;;;;;;;9.07;5.07;;;10.80;77.60;;;;;;5023884;28;20443;-70
2023/10/07 03:14:06;;;;;;;11.53;5.10;;;10.70;77.60;;;;;;5021349;28;20507;-70
2023/10/07 03:16:47;;;;;;;10.27;4.40;;;10.70;77.70;;;;;;5024558;28;20498;-70
2023/10/07 03:19:22;;;;;;;11.07;5.50;;;10.60;78.10;;;;;;5029493;28;20553;-70
2023/10/07 03:24:28;;;;;;;10.67;4.97;;;10.30;79.50;;;;;;5027753;28;20482;-70
2023/10/07 03:27:05;;;;;;;9.37;5.27;;;10.20;79.70;;;;;;5024757;28;20512;-70
2023/10/07 03:29:37;;;;;;;12.53;5.80;;;10.20;80.20;;;;;;5028387;28;20478;-70
2023/10/07 03:32:12;;;;;;;10.90;5.80;;;10.30;79.60;;;;;;5022225;28;20490;-70
2023/10/07 03:34:45;;;;;;;16.27;6.73;;;10.30;79.90;;;;;;5029736;28;20785;-69
2023/10/07 03:39:56;;;;;;;12.03;5.77;;;10.20;79.70;;;;;;5028938;28;20503;-70
2023/10/07 03:42:23;;;;;;;11.43;5.27;;;10.20;79.90;;;;;;5027448;28;20474;-70
2023/10/07 03:44:49;;;;;;;10.67;5.00;;;10.10;80.00;;;;;;5029850;28;20523;-71
2023/10/07 03:47:15;;;;;;;11.60;5.53;;;10.10;80.00;;;;;;5027451;28;20462;-71
2023/10/07 03:49:42;;;;;;;10.70;5.53;;;10.20;79.20;;;;;;5029692;28;20468;-70
2023/10/07 03:52:12;;;;;;;12.97;5.27;;;10.20;78.90;;;;;;5027259;28;20575;-70
2023/10/07 03:54:41;;;;;;;9.03;4.47;;;10.10;79.20;;;;;;5023769;28;20763;-70
2023/10/07 03:57:08;;;;;;;10.57;5.07;;;10.20;79.20;;;;;;5023962;28;20510;-70
2023/10/07 03:59:34;;;;;;;14.27;6.40;;;10.30;79.00;;;;;;5022429;28;20802;-70
2023/10/07 04:02:00;;;;;;;14.63;6.33;;;10.30;78.90;;;;;;5027217;28;20417;-71
2023/10/07 04:04:27;;;;;;;9.90;5.20;;;10.40;78.60;;;;;;5030379;28;20424;-71
2023/10/07 04:06:53;;;;;;;10.37;5.20;;;10.30;78.60;;;;;;5027314;28;20730;-71
2023/10/07 04:09:27;;;;;;;12.73;5.40;;;10.20;78.40;;;;;;5030428;28;20475;-71
2023/10/07 04:11:52;;;;;;;17.93;5.33;;;10.20;78.60;;;;;;5032341;28;20255;-71
2023/10/07 04:14:35;;;;;;;11.37;5.50;;;10.20;78.30;;;;;;5031052;28;21296;-71
2023/10/07 04:17:06;;;;;;;14.83;5.20;;;10.10;78.40;;;;;;5032455;28;20228;-71
2023/10/07 04:19:38;;;;;;;11.20;5.20;;;10.10;78.60;;;;;;5033048;28;20490;-71
2023/10/07 04:22:07;;;;;;;11.80;5.23;;;10.00;78.40;;;;;;5032751;28;20431;-70
2023/10/07 04:24:33;;;;;;;11.73;5.30;;;10.00;78.70;;;;;;5036063;28;20640;-70
2023/10/07 04:27:03;;;;;;;12.93;5.20;;;10.10;78.60;;;;;;5027961;28;20476;-70
2023/10/07 04:29:30;;;;;;;11.10;5.17;;;10.00;78.70;;;;;;5028715;28;20479;-70
2023/10/07 04:31:59;;;;;;;13.60;4.77;;;10.10;78.40;;;;;;5028712;28;20428;-70
2023/10/07 04:34:33;;;;;;;8.00;4.50;;;10.10;78.10;;;;;;5030728;28;20960;-70
2023/10/07 04:42:22;;;;;;;10.27;5.80;;;9.80;79.20;;;;;;5025195;28;20420;-71
2023/10/07 04:47:41;;;;;;;12.27;5.33;;;9.80;79.50;;;;;;5028794;28;20970;-70
2023/10/07 04:52:39;;;;;;;14.40;5.07;;;9.80;79.50;;;;;;5023361;28;20481;-69
2023/10/07 04:55:11;;;;;;;10.67;5.23;;;9.90;79.00;;;;;;5029182;28;20295;-70
2023/10/07 04:57:44;;;;;;;12.37;5.80;;;9.90;79.00;;;;;;5031508;28;20483;-69
2023/10/07 05:00:27;;;;;;;11.50;5.80;;;9.90;79.20;;;;;;5027552;28;20443;-69
2023/10/07 05:02:57;;;;;;;20.57;6.27;;;9.80;79.50;;;;;;5027771;28;20420;-70
2023/10/07 05:05:29;;;;;;;12.20;4.97;;;9.80;79.50;;;;;;5028439;28;20455;-70
2023/10/07 05:07:58;;;;;;;10.37;5.07;;;9.70;79.50;;;;;;5032019;28;21083;-70
2023/10/07 05:10:28;;;;;;;8.53;5.03;;;9.70;79.50;;;;;;5028243;28;20480;-70
2023/10/07 05:12:55;;;;;;;9.23;5.17;;;9.60;79.70;;;;;;5032098;28;20486;-70
2023/10/07 05:15:24;;;;;;;10.53;4.90;;;9.50;80.00;;;;;;5025365;28;21331;-70
2023/10/07 05:17:52;;;;;;;10.60;5.23;;;9.50;80.50;;;;;;5031691;28;20944;-70
2023/10/07 05:20:27;;;;;;;10.40;5.20;;;9.60;80.20;;;;;;5029172;28;20854;-71
2023/10/07 05:22:54;;;;;;;9.07;5.00;;;9.60;80.20;;;;;;5029941;28;20420;-70
2023/10/07 05:25:21;;;;;;;10.63;4.53;;;9.60;80.20;;;;;;5025110;28;20464;-70
2023/10/07 05:27:47;;;;;;;9.80;4.63;;;9.70;80.30;;;;;;5028998;28;20944;-70
2023/10/07 05:30:16;;;;;;;10.70;4.67;;;9.80;79.70;;;;;;5028380;28;20972;-70
2023/10/07 05:32:42;;;;;;;10.97;5.70;;;9.80;79.60;;;;;;5024059;28;20983;-70
2023/10/07 05:35:08;;;;;;;9.13;5.30;;;9.70;79.60;;;;;;5024373;28;20443;-70
2023/10/07 05:37:34;;;;;;;12.17;5.13;;;9.60;79.90;;;;;;5029761;28;20498;-70
2023/10/07 05:40:02;;;;;;;11.67;5.53;;;9.50;80.30;;;;;;5032568;28;20582;-69
2023/10/07 05:42:28;;;;;;;9.90;5.50;;;9.50;80.50;;;;;;5032373;28;20430;-70
2023/10/07 05:44:53;;;;;;;8.80;5.40;;;9.40;80.50;;;;;;5031733;28;20929;-70
2023/10/07 05:47:19;;;;;;;11.17;5.63;;;9.40;80.60;;;;;;5029970;28;20251;-70
2023/10/07 05:49:44;;;;;;;16.53;5.87;;;9.40;80.80;;;;;;5032310;28;20217;-70
2023/10/07 05:52:10;;;;;;;13.60;5.47;;;9.50;80.50;;;;;;5031480;28;20666;-70
2023/10/07 05:54:36;;;;;;;12.57;5.03;;;9.50;80.20;;;;;;5032409;28;20292;-70
2023/10/07 05:57:04;;;;;;;11.93;5.50;;;9.60;80.20;;;;;;5026164;28;20201;-70
2023/10/07 05:59:33;;;;;;;11.23;5.23;;;9.60;80.00;;;;;;5033184;28;20185;-70
2023/10/07 06:02:05;;;;;;;10.47;5.73;;;9.70;80.00;;;;;;5029634;28;20600;-70
2023/10/07 06:04:31;;;;;;;10.73;5.87;;;9.70;79.90;;;;;;5030831;28;20419;-70
2023/10/07 06:06:57;;;;;;;8.80;4.87;;;9.60;80.00;;;;;;5028807;28;20535;-70
2023/10/07 06:09:23;;;;;;;10.70;5.50;;;9.60;80.50;;;;;;5028474;28;20562;-71
2023/10/07 06:11:48;;;;;;;16.30;6.30;;;9.70;80.50;;;;;;5026329;28;20613;-71
2023/10/07 06:14:18;;;;;;;15.57;6.37;;;9.80;79.90;;;;;;5032282;28;20204;-70
2023/10/07 06:16:44;;;;;;;14.00;6.30;;;9.80;79.90;;;;;;5024876;28;20231;-70
2023/10/07 06:19:13;;;;;;;15.30;5.57;;;9.80;79.90;;;;;;5028679;28;20455;-70
2023/10/07 06:21:50;;;;;;;14.13;6.47;;;9.90;79.20;;;;;;5024535;28;20511;-70
2023/10/07 06:24:21;;;;;;;10.40;5.40;;;9.80;79.20;;;;;;5029415;28;20435;-71
2023/10/07 06:26:48;;;;;;;10.50;5.57;;;9.80;79.30;;;;;;5021898;28;20998;-70
2023/10/07 06:29:18;;;;;;;10.77;5.30;;;9.80;79.20;;;;;;5025265;28;20951;-70
2023/10/07 06:31:49;;;;;;;11.73;5.40;;;9.90;79.20;;;;;;5024376;28;20416;-70
2023/10/07 06:34:15;;;;;;;10.80;5.53;;;10.00;79.00;;;;;;5028797;28;20754;-70
2023/10/07 06:36:41;;;;;;;13.70;5.00;;;10.10;78.10;;;;;;5026429;28;20983;-70
2023/10/07 06:39:10;;;;;;;16.40;5.57;;;10.10;78.00;;;;;;5029189;28;20439;-70
2023/10/07 06:41:38;;;;;;;13.53;5.93;;;10.20;77.80;;;;;;5029889;28;20216;-70
2023/10/07 06:44:04;;;;;;;14.67;5.60;;;10.20;78.00;;;;;;5024713;28;20408;-70
2023/10/07 06:46:44;;;;;;;17.57;5.97;;;10.20;78.40;;;;;;5026099;28;20522;-70
2023/10/07 06:49:18;;;;;;;11.77;5.60;;;10.20;78.60;;;;;;5028169;28;20827;-70
2023/10/07 06:51:53;;;;;;;15.50;6.60;;;10.30;78.70;;;;;;5023528;28;20424;-70
2023/10/07 06:54:35;;;;;;;12.50;5.47;;;10.40;78.40;;;;;;5028485;28;20928;-70
2023/10/07 06:57:04;;;;;;;17.10;6.20;;;10.60;78.60;;;;;;5025181;28;20468;-70
2023/10/07 06:59:30;;;;;;;13.63;5.20;;;10.70;78.00;;;;;;5029946;28;20428;-69
2023/10/07 07:01:56;;;;;;;8.87;5.53;;;11.00;76.80;;;;;;5027034;28;20897;-70
2023/10/07 07:04:23;;;;;;;12.63;6.47;;;11.10;75.90;;;;;;5029225;28;20721;-70
2023/10/07 07:07:10;;;;;;;12.40;5.70;;;11.30;75.80;;;;;;5029223;28;21015;-70
2023/10/07 07:09:58;;;;;;;16.97;7.53;;;11.50;75.10;;;;;;5043956;28;20559;-69
2023/10/07 07:12:26;;;;;;;10.10;5.50;;;11.70;74.50;;;;;;5033726;28;20473;-70
2023/10/07 07:14:52;;;;;;;11.20;5.87;;;11.90;74.30;;;;;;5026491;28;20948;-71
2023/10/07 07:22:38;;;;;;;9.80;5.37;;;12.20;71.70;;;;;;5028876;28;20416;-70
2023/10/07 07:25:10;;;;;;;11.10;5.60;;;12.30;71.60;;;;;;5026981;28;20458;-71
2023/10/07 07:27:35;;;;;;;10.73;4.70;;;12.30;71.40;;;;;;5028263;28;20813;-70
2023/10/07 07:30:04;;;;;;;10.87;5.57;;;12.50;71.30;;;;;;5029548;28;20470;-70
2023/10/07 07:32:35;;;;;;;7.17;4.70;;;12.60;70.80;;;;;;5030966;28;20201;-69
2023/10/07 07:35:04;;;;;;;13.03;6.00;;;12.80;70.50;;;;;;5027832;28;20453;-70
2023/10/07 07:37:33;;;;;;;10.33;5.10;;;13.00;70.10;;;;;;5031634;28;20431;-71
2023/10/07 07:40:09;;;;;;;9.33;5.30;;;13.10;70.10;;;;;;5030774;28;20565;-71
2023/10/07 07:42:34;;;;;;;13.70;5.63;;;13.20;69.20;;;;;;5030303;28;20435;-70
2023/10/07 07:45:01;;;;;;;11.73;4.73;;;13.20;69.10;;;;;;5023210;28;20440;-70
2023/10/07 07:47:31;;;;;;;9.00;5.20;;;13.40;69.20;;;;;;5029510;28;20439;-71
2023/10/07 07:49:57;;;;;;;9.70;5.33;;;13.50;68.80;;;;;;5031072;28;20503;-73
2023/10/07 07:52:25;;;;;;;10.80;6.00;;;13.60;68.60;;;;;;5030281;28;20865;-71
2023/10/07 07:54:53;;;;;;;13.00;6.13;;;13.60;68.50;;;;;;5029643;28;20801;-70
2023/10/07 07:57:22;;;;;;;11.50;6.07;;;13.80;68.60;;;;;;5023406;28;20440;-72
2023/10/07 07:59:47;;;;;;;8.60;5.10;;;14.00;68.50;;;;;;5023845;28;20424;-71
2023/10/07 08:02:15;;;;;;;10.00;5.87;;;14.00;68.30;;;;;;5031196;28;20983;-71
2023/10/07 08:04:50;;;;;;;13.00;6.13;;;14.10;68.30;;;;;;5030230;28;20646;-71
2023/10/07 08:07:24;;;;;;;16.20;6.70;;;14.20;68.30;;;;;;5025325;28;20987;-70
2023/10/07 08:09:57;;;;;;;13.93;5.97;;;14.40;67.60;;;;;;5029613;28;20455;-71
2023/10/07 08:12:28;;;;;;;11.27;6.60;;;14.70;66.10;;;;;;5032533;28;20444;-72
2023/10/07 08:15:06;;;;;;;13.80;6.50;;;15.00;65.80;;;;;;5033192;28;20519;-73
2023/10/07 08:17:32;;;;;;;12.57;5.73;;;15.10;66.00;;;;;;5025674;28;20446;-70
2023/10/07 08:20:08;;;;;;;15.10;6.50;;;15.30;66.10;;;;;;5031403;28;20496;-70
2023/10/07 08:22:37;;;;;;;16.50;5.60;;;15.40;65.30;;;;;;5023030;28;20348;-69
2023/10/07 08:25:06;;;;;;;12.43;6.67;;;15.50;65.10;;;;;;5028642;28;20419;-69
2023/10/07 08:27:43;;;;;;;15.23;6.43;;;15.70;65.10;;;;;;5026366;28;21151;-70
2023/10/07 08:30:10;;;;;;;12.47;5.83;;;15.90;65.00;;;;;;5033139;28;20474;-69
2023/10/07 08:32:37;;;;;;;14.33;6.30;;;16.10;64.70;;;;;;5031646;28;20721;-69
2023/10/07 08:35:14;;;;;;;11.80;6.77;;;16.30;64.40;;;;;;5029429;28;20434;-70
2023/10/07 08:37:45;;;;;;;11.80;5.67;;;16.60;63.80;;;;;;5030588;28;20415;-70
2023/10/07 08:40:14;;;;;;;11.40;5.90;;;16.70;64.20;;;;;;5030721;28;20434;-69
2023/10/07 08:42:44;;;;;;;10.10;6.07;;;17.00;64.20;;;;;;5029182;28;20938;-69
2023/10/07 08:45:23;;;;;;;14.13;5.73;;;17.10;64.10;;;;;;5028304;28;20451;-70
2023/10/07 08:47:52;;;;;;;12.60;7.03;;;17.20;63.80;;;;;;5033109;28;20423;-70
2023/10/07 08:50:24;;;;;;;10.80;6.67;;;17.30;64.10;;;;;;5030518;28;20485;-70
2023/10/07 08:53:05;;;;;;;18.03;8.27;;;17.40;63.70;;;;;;5032507;28;20435;-69
2023/10/07 08:55:32;;;;;;;13.00;6.80;;;17.50;63.70;;;;;;5029639;28;20908;-70
2023/10/07 08:58:02;;;;;;;13.00;7.03;;;17.50;63.80;;;;;;5032791;28;20531;-69
2023/10/07 09:00:38;;;;;;;14.30;7.43;;;17.30;64.10;;;;;;5027781;28;20412;-69
2023/10/07 09:03:14;;;;;;;16.03;6.97;;;17.00;64.70;;;;;;5031231;28;20447;-70
2023/10/07 09:05:40;;;;;;;13.97;7.07;;;16.90;65.30;;;;;;5029686;28;20510;-69
2023/10/07 09:08:11;;;;;;;19.83;7.90;;;17.10;65.10;;;;;;5029030;28;20436;-69
2023/10/07 09:10:40;;;;;;;16.27;7.90;;;17.20;65.00;;;;;;5031695;28;20467;-70
2023/10/07 09:13:12;;;;;;;12.40;6.70;;;17.30;64.70;;;;;;5025678;28;20426;-69
2023/10/07 09:15:42;;;;;;;16.90;7.13;;;17.40;64.80;;;;;;5026963;28;20775;-70
2023/10/07 09:18:10;;;;;;;14.03;6.97;;;17.50;65.00;;;;;;5028006;28;20519;-69
2023/10/07 09:20:45;;;;;;;17.07;7.93;;;17.70;64.40;;;;;;5026058;28;20507;-69
2023/10/07 09:23:20;;;;;;;11.90;7.03;;;17.70;64.20;;;;;;5025644;28;20997;-70
2023/10/07 09:25:50;;;;;;;15.63;8.07;;;17.70;63.90;;;;;;5020320;28;20468;-69
2023/10/07 09:28:18;;;;;;;14.40;7.63;;;17.90;63.80;;;;;;5021954;28;20462;-70
2023/10/07 09:30:45;;;;;;;13.80;6.23;;;18.10;63.50;;;;;;5029404;28;20472;-70
2023/10/07 09:33:21;;;;;;;14.30;7.37;;;18.10;63.10;;;;;;5029352;28;20443;-69
2023/10/07 09:36:23;;;;;;;15.10;7.00;;;18.20;63.10;;;;;;5026353;28;20817;-70
2023/10/07 09:38:48;;;;;;;13.13;7.20;;;18.00;62.90;;;;;;5029491;28;20429;-70
2023/10/07 09:41:24;;;;;;;19.60;7.90;;;17.80;63.70;;;;;;5029401;28;20550;-69
2023/10/07 09:43:57;;;;;;;16.10;7.33;;;17.70;63.80;;;;;;5028205;28;20416;-69
2023/10/07 09:46:27;;;;;;;14.30;7.70;;;17.60;64.40;;;;;;5026423;28;20909;-70
2023/10/07 09:48:57;;;;;;;15.23;7.70;;;17.40;64.50;;;;;;5030883;28;20427;-70
2023/10/07 09:51:29;;;;;;;10.93;6.60;;;17.60;64.80;;;;;;5029974;28;20480;-70
2023/10/07 09:54:06;;;;;;;13.37;8.07;;;17.80;64.70;;;;;;5026212;28;20484;-72
2023/10/07 09:56:44;;;;;;;15.83;6.67;;;18.10;64.10;;;;;;5026690;28;20562;-70
2023/10/07 09:59:25;;;;;;;13.17;6.70;;;18.50;63.50;;;;;;5027227;28;20517;-70
2023/10/07 10:02:24;;;;;;;11.80;6.40;;;18.70;62.80;;;;;;5024192;28;21138;-70
2023/10/07 10:05:21;;;;;;;13.17;7.23;;;19.00;61.50;;;;;;5019960;28;20851;-70
2023/10/07 10:08:27;;;;;;;14.97;6.90;;;18.90;61.00;;;;;;5020866;28;20887;-71
2023/10/07 10:10:58;;;;;;;17.00;6.70;;;18.80;61.90;;;;;;4994141;28;20495;-71
2023/10/07 10:13:52;;;;;;;12.27;7.03;;;19.00;62.00;;;;;;5023402;28;20935;-70
2023/10/07 10:16:29;;;;;;;17.30;6.60;;;19.20;61.00;;;;;;5022888;28;20462;-73
2023/10/07 10:19:22;;;;;;;13.97;6.07;;;19.20;60.30;;;;;;5030472;28;20502;-72
2023/10/07 10:21:50;;;;;;;12.53;5.43;;;19.20;59.60;;;;;;5030489;28;20919;-71
2023/10/07 10:24:16;;;;;;;16.33;6.70;;;19.30;58.90;;;;;;5028791;28;20427;-72
2023/10/07 10:26:44;;;;;;;10.53;6.00;;;19.40;58.90;;;;;;5025356;28;20459;-72
2023/10/07 10:29:16;;;;;;;6.20;3.53;;;19.60;58.20;;;;;;5027929;28;20944;-72
2023/10/07 10:31:51;;;;;;;14.17;4.80;;;19.80;55.70;;;;;;5027902;28;20515;-72
2023/10/07 10:34:20;;;;;;;7.10;5.17;;;19.90;56.40;;;;;;5027005;28;20469;-72
2023/10/07 10:36:49;;;;;;;16.47;5.47;;;20.00;56.60;;;;;;5018937;28;20472;-72
2023/10/07 10:39:26;;;;;;;8.33;4.17;;;20.10;56.60;;;;;;5025394;28;20436;-72
2023/10/07 10:41:54;;;;;;;9.03;3.50;;;20.10;54.60;;;;;;5025303;28;20427;-72
2023/10/07 10:44:21;;;;;;;8.13;3.90;;;20.20;52.40;;;;;;5028299;28;20464;-75
2023/10/07 10:46:49;;;;;;;5.50;3.03;;;20.30;52.90;;;;;;5026110;28;20618;-71
2023/10/07 10:49:24;;;;;;;5.97;3.03;;;20.30;50.90;;;;;;5028903;28;21015;-71
2023/10/07 10:51:54;;;;;;;9.60;3.00;;;20.30;51.80;;;;;;5026744;28;20436;-72
2023/10/07 10:54:21;;;;;;;6.97;3.47;;;20.30;50.60;;;;;;5028572;28;20508;-72
2023/10/07 10:56:55;;;;;;;6.23;3.53;;;20.40;51.40;;;;;;5026452;28;20468;-71
2023/10/07 10:59:22;;;;;;;6.67;3.10;;;20.60;50.10;;;;;;5031503;28;20762;-71
2023/10/07 11:01:52;;;;;;;4.90;3.20;;;20.60;50.90;;;;;;5030444;28;20436;-72
2023/10/07 11:04:21;;;;;;;9.30;2.90;;;20.70;51.30;;;;;;5030054;28;20439;-70
2023/10/07 11:06:54;;;;;;;7.40;2.73;;;20.70;51.20;;;;;;5026084;28;20525;-72
2023/10/07 11:09:26;;;;;;;5.93;3.00;;;20.80;50.70;;;;;;5030352;28;20421;-72
2023/10/07 11:11:55;;;;;;;6.73;3.30;;;20.90;51.00;;;;;;5029495;28;20453;-72
2023/10/07 11:14:23;;;;;;;9.10;3.60;;;21.00;50.90;;;;;;5027604;28;20460;-71
2023/10/07 11:16:51;;;;;;;5.83;3.00;;;21.20;50.20;;;;;;5026531;28;20472;-73
2023/10/07 11:19:19;;;;;;;7.40;3.60;;;21.30;49.30;;;;;;5028706;28;20446;-72
2023/10/07 11:21:48;;;;;;;10.63;3.53;;;21.20;48.70;;;;;;5027933;28;20433;-72
2023/10/07 11:24:30;;;;;;;5.47;3.50;;;21.00;50.10;;;;;;5024182;28;20434;-72
2023/10/07 11:26:59;;;;;;;7.60;2.90;;;21.00;50.70;;;;;;5025072;28;20834;-71
2023/10/07 11:29:30;;;;;;;7.20;3.00;;;21.20;49.00;;;;;;5027691;28;20414;-71
2023/10/07 11:32:13;;;;;;;8.33;3.27;;;21.10;49.00;;;;;;5028165;28;20482;-71
2023/10/07 11:34:42;;;;;;;7.70;2.90;;;20.60;49.90;;;;;;5024158;28;20464;-71
2023/10/07 11:37:13;;;;;;;5.33;3.20;;;20.30;50.30;;;;;;5025391;28;20468;-71
2023/10/07 11:39:44;;;;;;;9.53;3.33;;;20.20;51.60;;;;;;5037300;28;20987;-72
2023/10/07 11:42:20;;;;;;;4.93;2.80;;;20.30;51.20;;;;;;5028411;28;20420;-72
2023/10/07 11:44:54;;;;;;;7.83;3.57;;;20.10;51.00;;;;;;5028167;28;20420;-72
2023/10/07 11:47:22;;;;;;;8.23;3.40;;;20.10;51.70;;;;;;5023693;28;20449;-72
2023/10/07 11:49:48;;;;;;;9.10;4.00;;;20.30;51.70;;;;;;5021421;28;20571;-72
2023/10/07 11:52:17;;;;;;;5.40;3.23;;;20.40;52.10;;;;;;5024904;28;20436;-72
2023/10/07 11:54:43;;;;;;;7.33;3.30;;;20.50;51.60;;;;;;5022043;28;20468;-72
2023/10/07 11:57:10;;;;;;;11.03;3.90;;;20.70;50.90;;;;;;5025952;28;20475;-71
2023/10/07 11:59:41;;;;;;;9.30;3.10;;;20.80;50.50;;;;;;5029694;28;20201;-71
2023/10/07 12:02:09;;;;;;;8.60;3.80;;;20.80;50.60;;;;;;5024714;28;20423;-72
2023/10/07 12:04:38;;;;;;;7.80;3.77;;;20.70;51.30;;;;;;5028416;28;20566;-71
2023/10/07 12:07:06;;;;;;;7.37;3.23;;;20.80;51.70;;;;;;5023780;28;20476;-72
2023/10/07 12:09:33;;;;;;;10.20;3.97;;;20.90;51.20;;;;;;5026710;28;20961;-71
2023/10/07 12:11:59;;;;;;;8.13;3.80;;;21.10;51.40;;;;;;5027700;28;20420;-71
2023/10/07 12:14:27;;;;;;;9.97;3.80;;;21.10;50.50;;;;;;5025973;28;20789;-73
2023/10/07 12:16:53;;;;;;;7.97;3.90;;;21.10;50.10;;;;;;5028532;28;20652;-73
2023/10/07 12:19:19;;;;;;;8.47;3.50;;;21.00;50.20;;;;;;5030960;28;20520;-71
2023/10/07 12:21:47;;;;;;;7.07;3.27;;;20.80;50.70;;;;;;5030570;28;20188;-74
2023/10/07 12:24:14;;;;;;;7.93;3.17;;;20.90;51.20;;;;;;5026093;28;20681;-73
2023/10/07 12:26:40;;;;;;;6.50;3.60;;;20.80;51.60;;;;;;5022356;28;20469;-72
2023/10/07 12:29:06;;;;;;;10.80;3.93;;;20.80;51.60;;;;;;5026072;28;20961;-71
2023/10/07 12:31:32;;;;;;;9.40;3.77;;;20.90;51.60;;;;;;5021355;28;20498;-71
2023/10/07 12:33:59;;;;;;;7.00;3.90;;;20.80;51.70;;;;;;5023865;28;20523;-71
2023/10/07 12:36:25;;;;;;;8.97;3.50;;;20.80;52.10;;;;;;5025765;28;20218;-72
2023/10/07 12:38:50;;;;;;;7.07;3.30;;;20.90;52.10;;;;;;5033749;28;20493;-72
2023/10/07 12:41:16;;;;;;;6.30;3.10;;;20.90;51.40;;;;;;5030394;28;20197;-72
2023/10/07 12:43:42;;;;;;;6.90;3.47;;;21.00;51.70;;;;;;5029818;28;20210;-72
2023/10/07 12:46:09;;;;;;;6.87;3.10;;;21.10;51.00;;;;;;5026156;28;20216;-72
2023/10/07 12:48:40;;;;;;;7.43;4.00;;;21.20;51.00;;;;;;5032623;28;20187;-71
2023/10/07 12:51:06;;;;;;;9.37;3.43;;;21.20;51.60;;;;;;5033180;28;21012;-72
2023/10/07 12:53:35;;;;;;;8.33;3.80;;;21.10;51.30;;;;;;5032725;28;20415;-72
2023/10/07 12:56:17;;;;;;;9.83;3.70;;;21.10;51.40;;;;;;5026390;28;20493;-72
2023/10/07 12:58:46;;;;;;;8.10;2.93;;;21.30;51.20;;;;;;5032189;28;20548;-72
2023/10/07 13:01:12;;;;;;;6.37;3.83;;;21.60;50.90;;;;;;5033334;28;20480;-70
2023/10/07 13:03:44;;;;;;;9.87;3.80;;;21.80;50.70;;;;;;5032518;28;20410;-72
2023/10/07 13:06:10;;;;;;;6.63;3.43;;;22.00;51.00;;;;;;5029957;28;20467;-71
2023/10/07 13:08:41;;;;;;;6.33;3.50;;;22.00;50.60;;;;;;5031663;28;20419;-72
2023/10/07 13:11:13;;;;;;;9.37;4.03;;;22.00;50.70;;;;;;5030590;28;20471;-71
2023/10/07 13:13:45;;;;;;;5.80;3.60;;;21.90;50.70;;;;;;5032620;28;20449;-71
2023/10/07 13:16:11;;;;;;;7.63;3.60;;;21.80;51.30;;;;;;5030103;28;21026;-72
2023/10/07 13:18:39;;;;;;;8.70;3.77;;;21.80;51.80;;;;;;5024599;28;20474;-72
2023/10/07 13:21:11;;;;;;;9.50;4.03;;;21.90;51.60;;;;;;5028110;28;20797;-71
2023/10/07 13:23:38;;;;;;;7.50;3.50;;;21.90;51.70;;;;;;5026463;28;20415;-72
2023/10/07 13:26:10;;;;;;;8.47;4.03;;;21.80;51.70;;;;;;5027048;28;20537;-72
2023/10/07 13:28:39;;;;;;;7.63;3.50;;;21.80;51.70;;;;;;5030477;28;20422;-71
2023/10/07 13:31:07;;;;;;;11.17;3.80;;;21.60;51.30;;;;;;5026454;28;20486;-72
2023/10/07 13:33:37;;;;;;;8.83;4.50;;;21.50;52.40;;;;;;5027831;28;20449;-72